createdAt,value
2019-06-08T00:02:22.964Z,100072.99
2019-06-08T00:04:52.790Z,100065.36
2019-06-08T00:07:23.129Z,100066.09
2019-06-08T00:09:52.737Z,100065.41
2019-06-08T00:12:23.282Z,100069.63
2019-06-08T00:14:52.947Z,100067.02
2019-06-08T00:17:35.808Z,100065.02
2019-06-08T00:19:53.831Z,100058.81
2019-06-08T00:22:23.887Z,100071.48
2019-06-08T00:24:53.684Z,100072.96
2019-06-08T00:27:24.520Z,100089.55
2019-06-08T00:29:54.178Z,100089.03
2019-06-08T00:32:24.511Z,100085.76
2019-06-08T00:34:54.118Z,100078.33
2019-06-08T00:37:24.914Z,100095.84
2019-06-08T00:39:56.076Z,100100.63
2019-06-08T00:42:25.713Z,100088.94
2019-06-08T00:44:55.337Z,100094.17
2019-06-08T00:47:24.915Z,100101.21
2019-06-08T00:49:54.490Z,100110.31
2019-06-08T00:52:25.591Z,100099.82
2019-06-08T00:54:55.519Z,100098.72
2019-06-08T00:57:26.032Z,100110.64
2019-06-08T00:59:55.630Z,100108.37
2019-06-08T01:02:26.725Z,100129.65
2019-06-08T01:04:56.511Z,100121.61
2019-06-08T01:07:26.917Z,100120.91
2019-06-08T01:09:56.488Z,100119.30
2019-06-08T01:12:26.827Z,100116.93
2019-06-08T01:14:56.581Z,100114.14
2019-06-08T01:17:27.521Z,100145.87
2019-06-08T01:19:57.234Z,100153.73
2019-06-08T01:22:27.740Z,100150.30
2019-06-08T01:24:57.511Z,100162.91
2019-06-08T01:27:28.164Z,100161.25
2019-06-08T01:29:59.928Z,100161.78
2019-06-08T01:32:30.602Z,100162.87
2019-06-08T01:35:00.182Z,100162.58
2019-06-08T01:37:31.127Z,100163.29
2019-06-08T01:40:00.821Z,100164.28
2019-06-08T01:42:31.795Z,100174.34
2019-06-08T01:45:03.406Z,100176.30
2019-06-08T01:47:33.238Z,100180.84
2019-06-08T01:50:02.815Z,100192.90
2019-06-08T01:52:33.047Z,100201.23
2019-06-08T01:55:04.742Z,100188.38
2019-06-08T01:57:34.321Z,100195.76
2019-06-08T02:00:29.148Z,100195.52
2019-06-08T02:02:38.812Z,100214.09
2019-06-08T02:05:08.805Z,100207.41
2019-06-08T02:07:38.533Z,100212.36
2019-06-08T02:10:09.588Z,100220.52
2019-06-08T02:12:41.541Z,100225.05
2019-06-08T02:15:11.931Z,100214.94
2019-06-08T02:17:41.761Z,100217.80
2019-06-08T02:20:12.340Z,100206.92
2019-06-08T02:22:41.989Z,100208.06
2019-06-08T02:25:12.296Z,100207.95
2019-06-08T02:27:41.878Z,100201.09
2019-06-08T02:30:15.849Z,100200.20
2019-06-08T02:32:45.434Z,100221.95
2019-06-08T02:35:15.529Z,100227.31
2019-06-08T02:37:45.178Z,100233.18
2019-06-08T02:40:16.564Z,100235.64
2019-06-08T02:42:46.150Z,100228.89
2019-06-08T02:45:17.632Z,100222.23
2019-06-08T02:47:47.370Z,100230.09
2019-06-08T02:50:18.998Z,100233.69
2019-06-08T02:52:52.211Z,100220.00
2019-06-08T02:55:24.200Z,100236.20
2019-06-08T02:57:54.384Z,100240.51
2019-06-08T03:00:24.038Z,100253.27
2019-06-08T03:02:55.334Z,100244.88
2019-06-08T03:05:25.287Z,100247.38
2019-06-08T03:07:56.290Z,100250.64
2019-06-08T03:10:27.960Z,100261.45
2019-06-08T03:12:58.184Z,100256.26
2019-06-08T03:15:34.393Z,100275.05
2019-06-08T03:18:05.259Z,100260.16
2019-06-08T03:20:35.775Z,100250.92
2019-06-08T03:23:05.632Z,100258.37
2019-06-08T03:25:47.329Z,100256.77
2019-06-08T03:28:06.714Z,100265.72
2019-06-08T03:30:41.703Z,100277.83
2019-06-08T03:33:07.591Z,100280.02
2019-06-08T03:35:46.510Z,100278.49
2019-06-08T03:38:08.505Z,100296.80
2019-06-08T03:40:38.755Z,100299.66
2019-06-08T03:43:10.955Z,100307.89
2019-06-08T03:45:40.858Z,100312.90
2019-06-08T03:48:11.977Z,100320.91
2019-06-08T03:50:42.075Z,100313.64
2019-06-08T03:53:12.856Z,100324.77
2019-06-08T03:55:45.030Z,100335.90
2019-06-08T03:58:14.071Z,100332.58
2019-06-08T04:00:44.377Z,100343.20
2019-06-08T04:03:14.160Z,100348.84
2019-06-08T04:05:44.863Z,100366.33
2019-06-08T04:08:15.036Z,100363.63
2019-06-08T04:10:46.822Z,100359.66
2019-06-08T04:13:15.939Z,100358.08
2019-06-08T04:15:46.925Z,100369.84
2019-06-08T04:18:16.786Z,100383.63
2019-06-08T04:20:48.646Z,100382.13
2019-06-08T04:23:17.662Z,100373.50
2019-06-08T04:25:47.697Z,100380.89
2019-06-08T04:28:17.403Z,100381.23
2019-06-08T04:30:49.309Z,100390.90
2019-06-08T04:33:19.872Z,100395.26
2019-06-08T04:35:50.739Z,100402.16
2019-06-08T04:38:20.518Z,100409.92
2019-06-08T04:40:50.247Z,100407.00
2019-06-08T04:43:19.771Z,100417.16
2019-06-08T04:45:49.876Z,100415.56
2019-06-08T04:48:19.622Z,100417.60
2019-06-08T04:50:49.829Z,100429.02
2019-06-08T04:53:19.554Z,100423.95
2019-06-08T04:55:50.158Z,100420.61
2019-06-08T04:58:19.754Z,100435.88
2019-06-08T05:00:50.770Z,100431.75
2019-06-08T05:03:20.668Z,100428.05
2019-06-08T05:05:50.380Z,100433.94
2019-06-08T05:08:19.921Z,100437.22
2019-06-08T05:10:49.860Z,100441.06
2019-06-08T05:13:19.532Z,100444.19
2019-06-08T05:15:50.255Z,100444.23
2019-06-08T05:18:20.028Z,100447.77
2019-06-08T05:20:51.503Z,100452.50
2019-06-08T05:23:20.931Z,100460.80
2019-06-08T05:25:50.512Z,100469.84
2019-06-08T05:28:21.097Z,100463.81
2019-06-08T05:30:50.744Z,100461.48
2019-06-08T05:33:20.325Z,100468.08
2019-06-08T05:35:49.992Z,100462.05
2019-06-08T05:38:19.569Z,100466.79
2019-06-08T05:40:49.907Z,100478.14
2019-06-08T05:43:20.316Z,100469.48
2019-06-08T05:45:50.041Z,100476.91
2019-06-08T05:48:19.592Z,100482.08
2019-06-08T05:51:00.418Z,100487.75
2019-06-08T05:53:20.489Z,100478.41
2019-06-08T05:55:50.275Z,100486.48
2019-06-08T05:58:19.998Z,100478.80
2019-06-08T06:00:50.616Z,100482.31
2019-06-08T06:03:20.347Z,100481.77
2019-06-08T06:05:50.766Z,100568.07
2019-06-08T06:08:20.459Z,100509.18
2019-06-08T06:10:51.318Z,100523.29
2019-06-08T06:13:21.082Z,100509.59
2019-06-08T06:15:51.681Z,100522.80
2019-06-08T06:18:21.487Z,100522.44
2019-06-08T06:20:51.549Z,100519.97
2019-06-08T06:23:21.431Z,100524.66
2019-06-08T06:25:51.813Z,100533.28
2019-06-08T06:28:21.490Z,100521.23
2019-06-08T06:30:52.188Z,100537.09
2019-06-08T06:33:21.947Z,100539.32
2019-06-08T06:35:52.138Z,100538.75
2019-06-08T06:38:21.953Z,100565.39
2019-06-08T06:40:52.187Z,100542.72
2019-06-08T06:43:22.022Z,100550.32
2019-06-08T06:45:52.157Z,100565.39
2019-06-08T06:48:23.540Z,100558.48
2019-06-08T06:50:53.231Z,100572.75
2019-06-08T06:53:22.811Z,100573.30
2019-06-08T06:55:53.378Z,100575.88
2019-06-08T06:58:23.223Z,100577.92
2019-06-08T07:00:53.774Z,100569.03
2019-06-08T07:03:23.447Z,100590.36
2019-06-08T07:05:54.238Z,100588.20
2019-06-08T07:08:23.964Z,100583.71
2019-06-08T07:10:55.275Z,100579.11
2019-06-08T07:13:25.926Z,100587.73
2019-06-08T07:15:58.131Z,100597.80
2019-06-08T07:18:26.820Z,100613.26
2019-06-08T07:20:56.394Z,100601.54
2019-06-08T07:23:25.976Z,100607.10
2019-06-08T07:25:55.557Z,100617.48
2019-06-08T07:28:25.158Z,100618.98
2019-06-08T07:30:54.947Z,100621.91
2019-06-08T07:33:24.593Z,100624.22
2019-06-08T07:35:55.244Z,100625.66
2019-06-08T07:38:24.945Z,100633.91
2019-06-08T07:40:58.466Z,100640.62
2019-06-08T07:43:25.833Z,100646.20
2019-06-08T07:45:56.292Z,100644.56
2019-06-08T07:48:25.994Z,100647.61
2019-06-08T07:50:56.405Z,100654.88
2019-06-08T07:53:26.194Z,100663.30
2019-06-08T07:55:56.247Z,100657.39
2019-06-08T07:58:25.949Z,100648.93
2019-06-08T08:01:00.731Z,100633.79
2019-06-08T08:03:26.832Z,100640.96
2019-06-08T08:05:56.791Z,100650.33
2019-06-08T08:08:26.470Z,100656.52
2019-06-08T08:10:57.178Z,100658.81
2019-06-08T08:13:26.751Z,100651.78
2019-06-08T08:15:58.680Z,100648.97
2019-06-08T08:18:27.726Z,100645.00
2019-06-08T08:20:59.233Z,100636.44
2019-06-08T08:23:28.596Z,100630.99
2019-06-08T08:26:01.355Z,100644.39
2019-06-08T08:28:29.475Z,100658.23
2019-06-08T08:31:01.717Z,100664.30
2019-06-08T08:33:30.423Z,100667.13
2019-06-08T08:36:01.870Z,100656.95
2019-06-08T08:38:31.346Z,100660.78
2019-06-08T08:41:07.361Z,100665.95
2019-06-08T08:43:32.235Z,100664.41
2019-06-08T08:46:02.102Z,100663.70
2019-06-08T08:48:33.190Z,100673.72
2019-06-08T08:51:03.592Z,100676.09
2019-06-08T08:53:33.554Z,100671.09
2019-06-08T08:56:03.128Z,100665.22
2019-06-08T08:58:32.705Z,100690.63
2019-06-08T09:01:03.769Z,100655.74
2019-06-08T09:03:33.949Z,100657.52
2019-06-08T09:06:04.051Z,100659.95
2019-06-08T09:08:33.823Z,100645.04
2019-06-08T09:11:04.450Z,100653.11
2019-06-08T09:13:34.013Z,100649.09
2019-06-08T09:16:04.430Z,100653.95
2019-06-08T09:18:34.146Z,100651.05
2019-06-08T09:21:04.319Z,100671.45
2019-06-08T09:23:34.019Z,100663.33
2019-06-08T09:26:08.817Z,100659.28
2019-06-08T09:28:34.943Z,100660.33
2019-06-08T09:31:04.566Z,100691.95
2019-06-08T09:33:34.140Z,100673.18
2019-06-08T09:36:04.986Z,100684.80
2019-06-08T09:38:34.681Z,100686.56
2019-06-08T09:41:05.413Z,100699.71
2019-06-08T09:43:38.787Z,100677.71
2019-06-08T09:46:09.345Z,100690.55
2019-06-08T09:48:41.612Z,100681.50
2019-06-08T09:51:11.210Z,100682.72
2019-06-08T09:53:41.825Z,100736.36
2019-06-08T09:56:11.546Z,100695.67
2019-06-08T09:58:41.151Z,100683.16
2019-06-08T10:01:12.370Z,100680.66
2019-06-08T10:03:42.198Z,100673.03
2019-06-08T10:06:12.760Z,100679.58
2019-06-08T10:08:42.529Z,100681.47
2019-06-08T10:11:12.143Z,100684.66
2019-06-08T10:13:43.335Z,100691.20
2019-06-08T10:16:13.222Z,100688.48
2019-06-08T10:18:42.851Z,100687.91
2019-06-08T10:21:12.453Z,100698.22
2019-06-08T10:23:42.198Z,100702.54
2019-06-08T10:26:12.213Z,100705.48
2019-06-08T10:28:41.827Z,100707.19
2019-06-08T10:31:11.402Z,100702.77
2019-06-08T10:33:41.093Z,100718.83
2019-06-08T10:36:12.801Z,100727.02
2019-06-08T10:38:42.098Z,100742.48
2019-06-08T10:41:17.815Z,100725.88
2019-06-08T10:43:43.114Z,100719.78
2019-06-08T10:46:17.151Z,100720.09
2019-06-08T10:48:44.024Z,100718.03
2019-06-08T10:51:13.583Z,100725.22
2019-06-08T10:53:49.016Z,100721.42
2019-06-08T10:56:14.477Z,100715.35
2019-06-08T10:58:44.075Z,100724.24
2019-06-08T11:01:15.205Z,100706.27
2019-06-08T11:03:44.789Z,100745.13
2019-06-08T11:06:14.360Z,100711.94
2019-06-08T11:08:43.932Z,100703.62
2019-06-08T11:11:14.848Z,100704.22
2019-06-08T11:13:50.097Z,100713.31
2019-06-08T11:16:18.066Z,100727.18
2019-06-08T11:18:50.626Z,100732.84
2019-06-08T11:21:20.282Z,100726.79
2019-06-08T11:24:05.647Z,100728.39
2019-06-08T11:26:24.463Z,100732.13
2019-06-08T11:28:52.491Z,100731.80
2019-06-08T11:31:22.071Z,100727.06
2019-06-08T11:33:52.675Z,100732.84
2019-06-08T11:36:22.233Z,100729.23
2019-06-08T11:38:51.843Z,100722.59
2019-06-08T11:41:22.806Z,100751.94
2019-06-08T11:43:52.515Z,100722.87
2019-06-08T11:46:22.346Z,100723.54
2019-06-08T11:48:52.061Z,100737.61
2019-06-08T11:51:21.623Z,100730.41
2019-06-08T11:53:52.282Z,100754.08
2019-06-08T11:56:23.415Z,100740.40
2019-06-08T11:58:57.915Z,100719.24
2019-06-08T12:01:27.744Z,100721.46
2019-06-08T12:03:57.946Z,100735.08
2019-06-08T12:06:27.650Z,100737.92
2019-06-08T12:09:00.154Z,100735.53
2019-06-08T12:11:28.644Z,100737.92
2019-06-08T12:13:58.521Z,100726.04
2019-06-08T12:16:28.422Z,100760.67
2019-06-08T12:18:58.557Z,100744.92
2019-06-08T12:21:28.310Z,100732.44
2019-06-08T12:23:57.918Z,100741.34
2019-06-08T12:26:27.512Z,100729.39
2019-06-08T12:28:58.009Z,100734.08
2019-06-08T12:31:29.930Z,100732.12
2019-06-08T12:34:00.576Z,100740.08
2019-06-08T12:36:30.762Z,100730.61
2019-06-08T12:39:00.418Z,100735.62
2019-06-08T12:41:31.528Z,100737.52
2019-06-08T12:44:01.180Z,100737.77
2019-06-08T12:46:30.752Z,100745.43
2019-06-08T12:49:00.345Z,100731.74
2019-06-08T12:51:29.923Z,100742.61
2019-06-08T12:54:00.280Z,100730.83
2019-06-08T12:56:30.061Z,100735.52
2019-06-08T12:58:59.725Z,100732.98
2019-06-08T13:01:29.301Z,100737.92
2019-06-08T13:03:58.881Z,100727.98
2019-06-08T13:06:28.506Z,100754.02
2019-06-08T13:08:58.090Z,100749.61
2019-06-08T13:11:28.226Z,100739.03
2019-06-08T13:13:59.026Z,100742.47
2019-06-08T13:16:30.410Z,100736.48
2019-06-08T13:18:59.977Z,100737.02
2019-06-08T13:21:35.075Z,100749.27
2019-06-08T13:24:02.093Z,100761.79
2019-06-08T13:26:31.722Z,100751.86
2019-06-08T13:29:01.292Z,100739.27
2019-06-08T13:31:30.892Z,100743.45
2019-06-08T13:34:00.482Z,100727.80
2019-06-08T13:36:30.071Z,100732.15
2019-06-08T13:38:59.647Z,100728.84
2019-06-08T13:41:30.053Z,100721.48
2019-06-08T13:43:59.720Z,100746.91
2019-06-08T13:46:29.305Z,100737.81
2019-06-08T13:48:58.892Z,100758.25
2019-06-08T13:51:29.172Z,100746.67
2019-06-08T13:53:58.841Z,100751.21
2019-06-08T13:56:29.835Z,100746.83
2019-06-08T13:58:59.421Z,100768.98
2019-06-08T14:01:30.745Z,100741.02
2019-06-08T14:04:00.564Z,100749.66
2019-06-08T14:06:30.152Z,100742.48
2019-06-08T14:08:59.920Z,100748.67
2019-06-08T14:11:29.488Z,100749.81
2019-06-08T14:14:01.351Z,100751.36
2019-06-08T14:16:30.397Z,100754.28
2019-06-08T14:18:59.985Z,100742.78
2019-06-08T14:21:38.655Z,100751.47
2019-06-08T14:24:00.897Z,100763.24
2019-06-08T14:26:30.513Z,100733.41
2019-06-08T14:29:01.523Z,100717.38
2019-06-08T14:31:32.148Z,100742.13
2019-06-08T14:34:01.913Z,100743.45
2019-06-08T14:36:31.494Z,100742.09
2019-06-08T14:39:02.404Z,100726.96
2019-06-08T14:41:32.269Z,100762.62
2019-06-08T14:44:01.859Z,100743.79
2019-06-08T14:46:31.441Z,100740.97
2019-06-08T14:49:01.059Z,100748.04
2019-06-08T14:51:49.199Z,100743.25
2019-06-08T14:54:26.268Z,100742.70
2019-06-08T14:56:52.473Z,100742.98
2019-06-08T14:59:23.780Z,100725.33
2019-06-08T15:01:53.551Z,100736.03
2019-06-08T15:04:26.664Z,100730.30
2019-06-08T15:06:54.430Z,100719.54
2019-06-08T15:09:24.032Z,100734.24
2019-06-08T15:11:53.598Z,100737.36
2019-06-08T19:04:41.552Z,100776.91
2019-06-08T19:07:11.018Z,100771.09
2019-06-08T19:09:42.621Z,100772.80
2019-06-08T19:12:13.340Z,100771.94
2019-06-08T19:14:43.554Z,100770.36
2019-06-08T19:17:13.169Z,100771.80
2019-06-08T19:19:47.225Z,100778.59
2019-06-08T19:22:15.667Z,100774.39
2019-06-08T19:24:49.150Z,100777.66
2019-06-08T19:27:18.379Z,100783.38
2019-06-08T19:29:51.383Z,100783.44
2019-06-08T19:32:20.326Z,100788.18
2019-06-08T19:34:53.898Z,100785.02
2019-06-08T19:37:21.211Z,100795.84
2019-06-08T19:39:50.797Z,100802.77
2019-06-08T19:42:35.271Z,100798.64
2019-06-08T19:45:01.117Z,100801.05
2019-06-08T19:47:23.035Z,100807.53
2019-06-08T19:49:54.791Z,100805.20
2019-06-08T19:52:23.995Z,100806.11
2019-06-08T19:54:54.143Z,100808.75
2019-06-08T19:57:23.822Z,100817.44
2019-06-08T19:59:53.400Z,100821.10
2019-06-08T20:02:22.979Z,100824.55
2019-06-08T20:04:53.269Z,100833.04
2019-06-08T20:07:23.204Z,100831.56
2019-06-08T20:09:53.939Z,100838.38
2019-06-08T20:12:23.641Z,100839.22
2019-06-08T20:14:53.813Z,100840.49
2019-06-08T20:17:23.391Z,100836.07
2019-06-08T20:19:53.417Z,100845.62
2019-06-08T20:22:23.119Z,100841.00
2019-06-08T20:24:55.759Z,100856.14
2019-06-08T20:27:24.845Z,100848.81
2019-06-08T20:29:54.519Z,100856.48
2019-06-08T20:32:24.147Z,100861.75
2019-06-08T20:34:53.847Z,100861.08
2019-06-08T20:37:23.384Z,100857.61
2019-06-08T20:40:04.212Z,100854.22
2019-06-08T20:42:24.261Z,100860.97
2019-06-08T20:44:53.841Z,100856.19
2019-06-08T20:47:23.427Z,100861.19
2019-06-08T20:49:53.478Z,100863.18
2019-06-08T20:52:23.133Z,100871.47
2019-06-08T20:54:53.527Z,100867.87
2019-06-08T20:57:23.165Z,100871.20
2019-06-08T20:59:53.998Z,100868.31
2019-06-08T21:02:24.079Z,100864.31
2019-06-08T21:04:54.903Z,100868.79
2019-06-08T21:07:24.980Z,100867.55
2019-06-08T21:09:57.541Z,100875.14
2019-06-08T21:12:28.167Z,100876.48
2019-06-08T21:14:57.323Z,100882.14
2019-06-08T21:17:27.528Z,100884.63
2019-06-08T21:19:57.911Z,100877.63
2019-06-08T21:22:27.886Z,100876.86
2019-06-08T21:24:59.887Z,100883.29
2019-06-08T21:27:29.009Z,100879.83
2019-06-08T21:30:06.775Z,100882.72
2019-06-08T21:32:29.959Z,100875.85
2019-06-08T21:35:00.394Z,100884.83
2019-06-08T21:37:30.019Z,100887.26
2019-06-08T21:40:03.814Z,100888.30
2019-06-08T21:42:31.050Z,100890.34
2019-06-08T21:45:02.194Z,100890.98
2019-06-08T21:47:32.073Z,100891.14
2019-06-08T21:50:01.651Z,100890.53
2019-06-08T21:52:31.244Z,100892.34
2019-06-08T21:55:00.829Z,100893.05
2019-06-08T21:57:30.424Z,100895.97
2019-06-08T22:00:21.991Z,100889.53
2019-06-08T22:02:31.322Z,100900.74
2019-06-08T22:05:03.272Z,100892.59
2019-06-08T22:07:32.234Z,100888.30
2019-06-08T22:10:02.931Z,100895.97
2019-06-08T22:12:32.517Z,100897.88
2019-06-08T22:15:03.086Z,100900.59
2019-06-08T22:17:32.765Z,100899.89
2019-06-08T22:20:03.434Z,100901.76
2019-06-08T22:22:34.526Z,100902.98
2019-06-08T22:25:08.273Z,100899.80
2019-06-08T22:27:38.194Z,100903.88
2019-06-08T22:30:13.411Z,100904.00
2019-06-08T22:32:39.877Z,100908.22
2019-06-08T22:35:09.609Z,100905.89
2019-06-08T22:37:39.179Z,100911.02
2019-06-08T22:40:09.557Z,100909.41
2019-06-08T22:42:39.165Z,100907.61
2019-06-08T22:45:10.050Z,100905.25
2019-06-08T22:47:39.638Z,100909.09
2019-06-08T22:50:10.132Z,100906.77
2019-06-08T22:52:40.836Z,100907.96
2019-06-08T22:55:11.238Z,100902.27
2019-06-08T22:57:40.899Z,100901.23
2019-06-08T23:00:17.277Z,100896.82
2019-06-08T23:02:44.709Z,100898.12
2019-06-08T23:05:14.505Z,100898.84
2019-06-08T23:07:44.121Z,100899.59
2019-06-08T23:10:14.111Z,100900.55
2019-06-08T23:12:43.706Z,100899.53
2019-06-08T23:15:15.110Z,100906.53
2019-06-08T23:17:44.685Z,100902.23
2019-06-08T23:20:14.487Z,100905.00
2019-06-08T23:22:44.071Z,100906.47
2019-06-08T23:25:32.992Z,100907.83
2019-06-08T23:28:03.272Z,100918.25
2019-06-08T23:30:34.105Z,100912.51
2019-06-08T23:33:04.684Z,100917.34
2019-06-08T23:35:47.935Z,100912.29
2019-06-08T23:38:08.092Z,100916.75
2019-06-08T23:40:37.951Z,100916.00
2019-06-08T23:43:08.251Z,100919.22
2019-06-08T23:45:38.211Z,100905.41
2019-06-08T23:48:08.750Z,100912.63
2019-06-08T23:50:38.413Z,100908.64
2019-06-08T23:53:10.750Z,100900.98
2019-06-08T23:55:39.373Z,100893.88
2019-06-08T23:58:11.168Z,100894.27
